Avery, California
Current Conditions -  °F | °C
As of 12:55 AM on Saturday 25 Oct 2014 (Local Time) from KO22 Reporting Station
Clear Clear  
Wind Chill: 57°   Ceiling: Unl
Heat Index: 57°   Visibility: 10mi
Dew Point: 32°   Wind: 3mph
Humidity: 38%   Direction: 150°SSE
Pressure: 29.96"   Gusts: NA
Location:  38.2°N, 120.37°W
Report Text: KO22 250755Z AUTO 15003KT 10SM CLR 14/00 A2996 RMK AO1
Loading
Personal Weather Stations






























Interactive Weather Map New forecast layout! Learn more

10-Day Weather Forecast

Advertisements
Track Severe Weather on mobile